www.cux-wetter.de
Wetterdaten: Woche 28.07.14 - 03.08.14 (KW31)
Datum Zeit Temp. A. Feuchte A. Luftdruck Regen Wind Richtung Sonnenschein Solar Taupunkt Windchill Windben
28.07.2014 00:00 20,8 C 85 % 1014,3 hPa 0,0 l/m 6,7 km/h (2 Bft) N-NW 0,00 h 0 W/m 18,1 C 20,7 C 6,7 km/h (2 Bft)
28.07.2014 01:00 20,5 C 86 % 1013,5 hPa 0,0 l/m 6,7 km/h (2 Bft) N-NW 0,00 h 0 W/m 18,0 C 20,4 C 6,7 km/h (2 Bft)
28.07.2014 02:00 20,2 C 86 % 1013,5 hPa 0,0 l/m 6,7 km/h (2 Bft) N-NW 0,00 h 0 W/m 17,8 C 20,1 C 6,7 km/h (2 Bft)
28.07.2014 03:00 19,9 C 86 % 1013,5 hPa 0,0 l/m 6,7 km/h (2 Bft) N-NW 0,00 h 0 W/m 17,6 C 19,8 C 6,7 km/h (2 Bft)
28.07.2014 04:00 19,8 C 87 % 1013,5 hPa 0,0 l/m 6,7 km/h (2 Bft) N-NW 0,00 h 0 W/m 17,6 C 19,7 C 6,7 km/h (2 Bft)
28.07.2014 05:00 19,6 C 87 % 1013,5 hPa 0,0 l/m 6,7 km/h (2 Bft) N-NW 0,00 h 0 W/m 17,3 C 19,5 C 6,7 km/h (2 Bft)
28.07.2014 06:00 19,3 C 87 % 1013,5 hPa 0,3 l/m 6,7 km/h (2 Bft) N-NW 0,00 h 0 W/m 17,0 C 19,2 C 6,7 km/h (2 Bft)
28.07.2014 07:00 20,0 C 87 % 1013,5 hPa 0,0 l/m 6,7 km/h (2 Bft) N-NW 0,00 h 0 W/m 17,8 C 19,8 C 6,7 km/h (2 Bft)
28.07.2014 08:00 21,0 C 87 % 1013,5 hPa 0,0 l/m 5,0 km/h (1 Bft) NO 0,00 h 0 W/m 18,8 C 20,9 C 5,0 km/h (1 Bft)
28.07.2014 09:00 21,6 C 85 % 1013,5 hPa 0,0 l/m 5,2 km/h (1 Bft) NO 0,00 h 0 W/m 18,9 C 21,3 C 5,2 km/h (1 Bft)
28.07.2014 10:00 22,5 C 81 % 1013,5 hPa 0,0 l/m 7,6 km/h (2 Bft) NO 0,00 h 0 W/m 18,9 C 21,8 C 7,6 km/h (2 Bft)
28.07.2014 11:00 24,6 C 74 % 1013,5 hPa 0,0 l/m 4,0 km/h (1 Bft) NO 0,00 h 0 W/m 19,5 C 24,6 C 4,0 km/h (1 Bft)
28.07.2014 12:00 26,0 C 68 % 1013,5 hPa 0,0 l/m 4,0 km/h (1 Bft) NO 0,00 h 0 W/m 19,5 C 26,0 C 4,0 km/h (1 Bft)
28.07.2014 13:00 26,5 C 66 % 1013,0 hPa 0,0 l/m 4,0 km/h (1 Bft) NO 0,00 h 0 W/m 19,5 C 26,5 C 4,0 km/h (1 Bft)
28.07.2014 14:00 26,6 C 66 % 1012,5 hPa 0,0 l/m 4,0 km/h (1 Bft) NO 0,00 h 0 W/m 19,6 C 26,6 C 4,0 km/h (1 Bft)
28.07.2014 15:00 26,7 C 66 % 1012,5 hPa 0,0 l/m 4,0 km/h (1 Bft) NO 0,00 h 0 W/m 19,8 C 26,7 C 4,0 km/h (1 Bft)
28.07.2014 16:00 26,4 C 68 % 1011,8 hPa 0,0 l/m 16,2 km/h (3 Bft) NO 0,00 h 0 W/m 20,0 C 24,9 C 16,2 km/h (3 Bft)
28.07.2014 17:00 25,6 C 72 % 1011,5 hPa 0,0 l/m 20,3 km/h (4 Bft) NO 0,00 h 0 W/m 20,2 C 23,5 C 20,3 km/h (4 Bft)
28.07.2014 18:00 25,3 C 75 % 1010,5 hPa 0,0 l/m 22,8 km/h (4 Bft) NO 0,00 h 0 W/m 20,4 C 22,8 C 22,8 km/h (4 Bft)
28.07.2014 19:00 24,6 C 78 % 1010,5 hPa 0,0 l/m 23,1 km/h (4 Bft) O-NO 0,00 h 0 W/m 20,4 C 21,7 C 23,1 km/h (4 Bft)
28.07.2014 20:00 24,0 C 79 % 1011,0 hPa 0,0 l/m 18,5 km/h (3 Bft) NO 0,00 h 0 W/m 20,1 C 21,6 C 18,5 km/h (3 Bft)
28.07.2014 21:00 23,3 C 80 % 1011,5 hPa 0,0 l/m 15,3 km/h (3 Bft) NO 0,00 h 0 W/m 19,6 C 21,3 C 15,3 km/h (3 Bft)
28.07.2014 22:00 22,9 C 83 % 1011,5 hPa 0,0 l/m 9,0 km/h (2 Bft) N-NO 0,00 h 0 W/m 19,7 C 22,0 C 9,0 km/h (2 Bft)
28.07.2014 23:00 22,4 C 84 % 1011,5 hPa 0,0 l/m 6,8 km/h (2 Bft) N 0,00 h 0 W/m 19,5 C 22,1 C 6,8 km/h (2 Bft)
29.07.2014 00:00 21,9 C 85 % 1011,5 hPa 0,0 l/m 4,9 km/h (1 Bft) N 0,00 h 0 W/m 19,3 C 21,9 C 4,9 km/h (1 Bft)
29.07.2014 01:00 21,5 C 85 % 1011,5 hPa 0,0 l/m 1,3 km/h (1 Bft) N 0,00 h 0 W/m 18,8 C 21,5 C 1,3 km/h (1 Bft)
29.07.2014 02:00 21,0 C 86 % 1011,5 hPa 0,0 l/m 0,1 km/h (0 Bft) N 0,00 h 0 W/m 18,5 C 21,0 C 0,1 km/h (0 Bft)
29.07.2014 03:00 20,8 C 87 % 1010,8 hPa 0,0 l/m 0,0 km/h (0 Bft) N 0,00 h 0 W/m 18,5 C 20,8 C 0,0 km/h (0 Bft)
29.07.2014 04:00 20,5 C 87 % 1010,5 hPa 0,0 l/m 0,0 km/h (0 Bft) N 0,00 h 0 W/m 18,3 C 20,5 C 0,0 km/h (0 Bft)
29.07.2014 05:00 20,4 C 87 % 1010,5 hPa 0,0 l/m 0,0 km/h (0 Bft) N 0,00 h 0 W/m 18,1 C 20,4 C 0,0 km/h (0 Bft)
29.07.2014 06:00 20,4 C 87 % 1010,5 hPa 0,0 l/m 0,1 km/h (0 Bft) N 0,00 h 0 W/m 18,1 C 20,4 C 0,1 km/h (0 Bft)
29.07.2014 07:00 20,6 C 87 % 1010,5 hPa 0,0 l/m 0,2 km/h (0 Bft) N 0,00 h 0 W/m 18,4 C 20,6 C 0,2 km/h (0 Bft)
29.07.2014 08:00 21,2 C 88 % 1010,5 hPa 0,0 l/m 0,1 km/h (0 Bft) N 0,00 h 0 W/m 19,0 C 21,2 C 0,1 km/h (0 Bft)
29.07.2014 09:00 22,0 C 86 % 1010,5 hPa 0,0 l/m 0,3 km/h (0 Bft) N 0,00 h 0 W/m 19,5 C 22,0 C 0,3 km/h (0 Bft)
29.07.2014 10:00 23,4 C 84 % 1010,5 hPa 0,0 l/m 6,2 km/h (2 Bft) NO 0,00 h 0 W/m 20,5 C 22,8 C 6,2 km/h (2 Bft)
29.07.2014 11:00 25,9 C 74 % 1010,5 hPa 0,0 l/m 11,4 km/h (2 Bft) NO 0,00 h 0 W/m 20,9 C 24,9 C 11,4 km/h (2 Bft)
29.07.2014 12:00 27,7 C 68 % 1010,5 hPa 0,0 l/m 15,9 km/h (3 Bft) N-NO 0,00 h 0 W/m 21,2 C 26,6 C 15,9 km/h (3 Bft)
29.07.2014 13:00 27,0 C 70 % 1010,5 hPa 0,0 l/m 20,8 km/h (4 Bft) N-NO 0,00 h 0 W/m 21,1 C 25,2 C 20,8 km/h (4 Bft)
29.07.2014 14:00 27,0 C 71 % 1009,5 hPa 0,0 l/m 24,3 km/h (4 Bft) N-NO 0,00 h 0 W/m 21,2 C 24,9 C 24,3 km/h (4 Bft)
29.07.2014 15:00 26,5 C 71 % 1009,5 hPa 0,0 l/m 27,8 km/h (5 Bft) NO 0,00 h 0 W/m 20,7 C 24,0 C 27,8 km/h (5 Bft)
29.07.2014 16:00 26,3 C 70 % 1009,3 hPa 0,0 l/m 27,1 km/h (5 Bft) O-NO 0,00 h 0 W/m 20,3 C 23,7 C 27,1 km/h (5 Bft)
29.07.2014 17:00 25,7 C 69 % 1008,5 hPa 0,0 l/m 25,0 km/h (4 Bft) NO 0,00 h 0 W/m 19,6 C 23,1 C 25,0 km/h (4 Bft)
29.07.2014 18:00 24,8 C 71 % 1008,5 hPa 0,0 l/m 27,3 km/h (5 Bft) NO 0,00 h 0 W/m 19,1 C 21,7 C 27,3 km/h (5 Bft)
29.07.2014 19:00 24,3 C 71 % 1008,5 hPa 0,0 l/m 25,5 km/h (4 Bft) O-NO 0,00 h 0 W/m 18,6 C 21,1 C 25,5 km/h (4 Bft)
29.07.2014 20:00 23,3 C 73 % 1008,5 hPa 0,0 l/m 23,8 km/h (4 Bft) O-NO 0,00 h 0 W/m 18,1 C 20,0 C 23,8 km/h (4 Bft)
29.07.2014 21:00 22,5 C 74 % 1008,5 hPa 0,0 l/m 20,7 km/h (4 Bft) O-NO 0,00 h 0 W/m 17,7 C 19,3 C 20,7 km/h (4 Bft)
29.07.2014 22:00 21,9 C 74 % 1008,5 hPa 0,0 l/m 18,6 km/h (3 Bft) NO 0,00 h 0 W/m 17,0 C 18,9 C 18,6 km/h (3 Bft)
29.07.2014 23:00 21,7 C 72 % 1008,5 hPa 0,0 l/m 19,0 km/h (3 Bft) O-NO 0,00 h 0 W/m 16,4 C 18,6 C 19,0 km/h (3 Bft)
30.07.2014 00:00 21,6 C 74 % 1008,5 hPa 0,0 l/m 19,0 km/h (3 Bft) NO 0,00 h 0 W/m 16,6 C 18,5 C 19,0 km/h (3 Bft)
30.07.2014 01:00 21,2 C 78 % 1008,5 hPa 0,0 l/m 16,4 km/h (3 Bft) NO 0,00 h 0 W/m 17,2 C 18,4 C 16,4 km/h (3 Bft)
30.07.2014 02:00 21,0 C 79 % 1008,5 hPa 0,0 l/m 20,6 km/h (4 Bft) NO 0,00 h 0 W/m 17,1 C 17,4 C 20,6 km/h (4 Bft)
30.07.2014 03:00 20,8 C 79 % 1008,5 hPa 0,0 l/m 20,2 km/h (4 Bft) NO 0,00 h 0 W/m 17,0 C 17,2 C 20,2 km/h (4 Bft)
30.07.2014 04:00 20,4 C 79 % 1007,5 hPa 0,0 l/m 18,0 km/h (3 Bft) NO 0,00 h 0 W/m 16,6 C 17,1 C 18,0 km/h (3 Bft)
30.07.2014 05:00 20,3 C 79 % 1007,5 hPa 0,0 l/m 17,9 km/h (3 Bft) NO 0,00 h 0 W/m 16,6 C 17,1 C 17,9 km/h (3 Bft)
30.07.2014 06:00 20,1 C 80 % 1007,8 hPa 0,0 l/m 21,9 km/h (4 Bft) NO 0,00 h 0 W/m 16,4 C 16,0 C 21,9 km/h (4 Bft)
30.07.2014 07:00 20,3 C 78 % 1008,5 hPa 0,0 l/m 18,9 km/h (3 Bft) N-NO 0,00 h 0 W/m 16,4 C 16,8 C 18,9 km/h (3 Bft)
30.07.2014 08:00 20,7 C 75 % 1008,5 hPa 0,0 l/m 21,2 km/h (4 Bft) NO 0,00 h 0 W/m 16,0 C 16,9 C 21,2 km/h (4 Bft)
30.07.2014 09:00 21,2 C 70 % 1008,5 hPa 0,0 l/m 20,6 km/h (4 Bft) NO 0,00 h 0 W/m 15,6 C 17,7 C 20,6 km/h (4 Bft)
30.07.2014 10:00 21,8 C 69 % 1008,8 hPa 0,0 l/m 21,8 km/h (4 Bft) N-NO 0,00 h 0 W/m 15,8 C 18,2 C 21,8 km/h (4 Bft)
30.07.2014 11:00 22,9 C 66 % 1009,5 hPa 0,0 l/m 19,6 km/h (3 Bft) NO 0,00 h 0 W/m 16,1 C 20,0 C 19,6 km/h (3 Bft)
30.07.2014 12:00 24,1 C 63 % 1009,5 hPa 0,0 l/m 19,6 km/h (3 Bft) N 0,00 h 0 W/m 16,4 C 21,5 C 19,6 km/h (3 Bft)
30.07.2014 13:00 24,1 C 62 % 1010,0 hPa 0,0 l/m 21,2 km/h (4 Bft) N-NW 0,00 h 0 W/m 16,3 C 21,4 C 21,2 km/h (4 Bft)
30.07.2014 14:00 23,8 C 61 % 1010,5 hPa 0,0 l/m 22,0 km/h (4 Bft) N-NW 0,00 h 0 W/m 15,8 C 20,8 C 22,0 km/h (4 Bft)
30.07.2014 15:00 23,4 C 61 % 1010,5 hPa 0,0 l/m 21,1 km/h (4 Bft) NW 0,00 h 0 W/m 15,3 C 20,4 C 21,1 km/h (4 Bft)
30.07.2014 16:00 24,6 C 59 % 1010,5 hPa 0,0 l/m 23,2 km/h (4 Bft) NW 0,00 h 0 W/m 16,1 C 21,7 C 23,2 km/h (4 Bft)
30.07.2014 17:00 23,9 C 60 % 1010,5 hPa 0,0 l/m 24,4 km/h (4 Bft) N-NW 0,00 h 0 W/m 15,7 C 20,7 C 24,4 km/h (4 Bft)
30.07.2014 18:00 22,6 C 61 % 1010,5 hPa 0,0 l/m 24,3 km/h (4 Bft) N-NW 0,00 h 0 W/m 14,7 C 19,0 C 24,3 km/h (4 Bft)
30.07.2014 19:00 21,5 C 65 % 1010,5 hPa 0,0 l/m 18,3 km/h (3 Bft) N-NO 0,00 h 0 W/m 14,6 C 18,5 C 18,3 km/h (3 Bft)
30.07.2014 20:00 20,9 C 66 % 1010,5 hPa 0,0 l/m 20,4 km/h (4 Bft) NW 0,00 h 0 W/m 14,3 C 17,3 C 20,4 km/h (4 Bft)
30.07.2014 21:00 20,1 C 68 % 1011,3 hPa 0,0 l/m 17,7 km/h (3 Bft) N-NW 0,00 h 0 W/m 13,9 C 16,8 C 17,7 km/h (3 Bft)
30.07.2014 22:00 19,6 C 70 % 1011,5 hPa 0,0 l/m 16,3 km/h (3 Bft) N-NW 0,00 h 0 W/m 14,1 C 16,5 C 16,3 km/h (3 Bft)
30.07.2014 23:00 19,4 C 72 % 1011,5 hPa 0,0 l/m 14,6 km/h (3 Bft) NW 0,00 h 0 W/m 14,2 C 16,6 C 14,6 km/h (3 Bft)
31.07.2014 00:00 19,1 C 73 % 1011,5 hPa 0,0 l/m 15,7 km/h (3 Bft) NW 0,00 h 0 W/m 14,1 C 15,9 C 15,7 km/h (3 Bft)
31.07.2014 01:00 18,9 C 73 % 1011,5 hPa 0,0 l/m 19,8 km/h (4 Bft) NW 0,00 h 0 W/m 14,0 C 14,9 C 19,8 km/h (4 Bft)
31.07.2014 02:00 18,9 C 74 % 1011,5 hPa 0,0 l/m 21,3 km/h (4 Bft) NW 0,00 h 0 W/m 14,2 C 14,6 C 21,3 km/h (4 Bft)
31.07.2014 03:00 19,0 C 76 % 1011,5 hPa 0,0 l/m 23,0 km/h (4 Bft) NW 0,00 h 0 W/m 14,6 C 14,3 C 23,0 km/h (4 Bft)
31.07.2014 04:00 18,8 C 75 % 1011,5 hPa 0,0 l/m 21,3 km/h (4 Bft) NW 0,00 h 0 W/m 14,3 C 14,5 C 21,3 km/h (4 Bft)
31.07.2014 05:00 18,6 C 75 % 1012,0 hPa 0,0 l/m 20,8 km/h (4 Bft) NW 0,00 h 0 W/m 14,0 C 14,2 C 20,8 km/h (4 Bft)
31.07.2014 06:00 18,8 C 75 % 1012,3 hPa 0,0 l/m 19,7 km/h (3 Bft) NW 0,00 h 0 W/m 14,3 C 14,8 C 19,7 km/h (3 Bft)
31.07.2014 07:00 19,0 C 77 % 1012,5 hPa 0,0 l/m 21,3 km/h (4 Bft) W 0,00 h 0 W/m 14,8 C 14,7 C 21,3 km/h (4 Bft)
31.07.2014 08:00 19,4 C 78 % 1012,5 hPa 0,0 l/m 24,5 km/h (4 Bft) W 0,00 h 0 W/m 15,5 C 14,8 C 24,5 km/h (4 Bft)
31.07.2014 09:00 19,9 C 78 % 1012,5 hPa 0,0 l/m 27,5 km/h (5 Bft) W 0,00 h 0 W/m 15,9 C 14,8 C 27,5 km/h (5 Bft)
31.07.2014 10:00 20,9 C 75 % 1012,5 hPa 0,0 l/m 25,2 km/h (4 Bft) W-NW 0,00 h 0 W/m 16,3 C 16,6 C 25,2 km/h (4 Bft)
31.07.2014 11:00 22,0 C 69 % 1013,3 hPa 0,0 l/m 23,5 km/h (4 Bft) W-NW 0,00 h 0 W/m 16,0 C 18,3 C 23,5 km/h (4 Bft)
31.07.2014 12:00 22,0 C 66 % 1013,5 hPa 0,0 l/m 23,3 km/h (4 Bft) NW 0,00 h 0 W/m 15,4 C 18,3 C 23,3 km/h (4 Bft)
31.07.2014 13:00 24,5 C 60 % 1013,5 hPa 0,0 l/m 25,7 km/h (4 Bft) NW 0,00 h 0 W/m 16,1 C 21,5 C 25,7 km/h (4 Bft)
31.07.2014 14:00 25,4 C 58 % 1013,5 hPa 0,0 l/m 21,9 km/h (4 Bft) NW 0,00 h 0 W/m 16,5 C 23,0 C 21,9 km/h (4 Bft)
31.07.2014 15:00 25,5 C 59 % 1013,5 hPa 0,0 l/m 17,1 km/h (3 Bft) W-NW 0,00 h 0 W/m 16,7 C 23,6 C 17,1 km/h (3 Bft)
31.07.2014 16:00 25,2 C 58 % 1012,5 hPa 0,0 l/m 14,1 km/h (3 Bft) W 0,00 h 0 W/m 16,4 C 23,7 C 14,1 km/h (3 Bft)
31.07.2014 17:00 23,7 C 62 % 1012,5 hPa 0,0 l/m 12,5 km/h (2 Bft) W 0,00 h 0 W/m 15,9 C 22,2 C 12,5 km/h (2 Bft)
31.07.2014 18:00 23,5 C 60 % 1012,5 hPa 0,0 l/m 16,4 km/h (3 Bft) W 0,00 h 0 W/m 15,3 C 21,3 C 16,4 km/h (3 Bft)
31.07.2014 19:00 22,9 C 61 % 1012,5 hPa 0,0 l/m 9,3 km/h (2 Bft) W-SW 0,00 h 0 W/m 15,1 C 22,0 C 9,3 km/h (2 Bft)
31.07.2014 20:00 21,4 C 70 % 1012,5 hPa 0,3 l/m 5,4 km/h (2 Bft) W 0,00 h 0 W/m 15,7 C 20,7 C 5,4 km/h (2 Bft)
31.07.2014 21:00 20,0 C 76 % 1012,5 hPa 0,0 l/m 0,0 km/h (0 Bft) N 0,00 h 0 W/m 15,5 C 20,0 C 0,0 km/h (0 Bft)
31.07.2014 22:00 19,2 C 78 % 1012,5 hPa 0,0 l/m 1,4 km/h (1 Bft) S-SO 0,00 h 0 W/m 15,3 C 19,2 C 1,4 km/h (1 Bft)
31.07.2014 23:00 18,8 C 80 % 1012,5 hPa 0,0 l/m 8,3 km/h (2 Bft) S 0,00 h 0 W/m 15,2 C 18,0 C 8,3 km/h (2 Bft)
01.08.2014 00:00 18,8 C 80 % 1012,5 hPa 0,0 l/m 9,4 km/h (2 Bft) S 0,00 h 0 W/m 15,2 C 17,5 C 9,4 km/h (2 Bft)
01.08.2014 01:00 18,6 C 79 % 1012,3 hPa 0,0 l/m 7,2 km/h (2 Bft) S 0,00 h 0 W/m 14,9 C 17,9 C 7,2 km/h (2 Bft)
01.08.2014 02:00 18,1 C 79 % 1011,5 hPa 0,0 l/m 4,1 km/h (1 Bft) S 0,00 h 0 W/m 14,4 C 18,0 C 4,1 km/h (1 Bft)
01.08.2014 03:00 17,8 C 79 % 1011,5 hPa 0,0 l/m 0,0 km/h (0 Bft) N 0,00 h 0 W/m 14,1 C 17,8 C 0,0 km/h (0 Bft)
01.08.2014 04:00 17,0 C 80 % 1011,5 hPa 0,0 l/m 1,5 km/h (1 Bft) S 0,00 h 0 W/m 13,6 C 17,0 C 1,5 km/h (1 Bft)
01.08.2014 05:00 17,0 C 81 % 1011,5 hPa 0,0 l/m 7,8 km/h (2 Bft) S 0,00 h 0 W/m 13,8 C 16,3 C 7,8 km/h (2 Bft)
01.08.2014 06:00 16,9 C 81 % 1011,5 hPa 0,3 l/m 7,6 km/h (2 Bft) S 0,00 h 0 W/m 13,6 C 16,3 C 7,6 km/h (2 Bft)
01.08.2014 07:00 17,2 C 79 % 1011,5 hPa 0,0 l/m 10,8 km/h (2 Bft) S 0,00 h 0 W/m 13,6 C 15,3 C 10,8 km/h (2 Bft)
01.08.2014 08:00 17,9 C 78 % 1011,0 hPa 0,0 l/m 11,3 km/h (2 Bft) S 0,00 h 0 W/m 14,0 C 15,9 C 11,3 km/h (2 Bft)
01.08.2014 09:00 19,3 C 76 % 1011,5 hPa 0,0 l/m 13,2 km/h (3 Bft) S 0,00 h 0 W/m 15,0 C 16,9 C 13,2 km/h (3 Bft)
01.08.2014 10:00 21,4 C 71 % 1010,8 hPa 0,0 l/m 12,5 km/h (2 Bft) S 0,00 h 0 W/m 15,9 C 19,6 C 12,5 km/h (2 Bft)
01.08.2014 11:00 24,6 C 62 % 1010,5 hPa 0,0 l/m 9,9 km/h (2 Bft) S 0,00 h 0 W/m 16,8 C 23,8 C 9,9 km/h (2 Bft)
01.08.2014 12:00 27,3 C 52 % 1010,5 hPa 0,0 l/m 11,4 km/h (2 Bft) S-SO 0,00 h 0 W/m 16,5 C 26,5 C 11,4 km/h (2 Bft)
01.08.2014 13:00 28,8 C 47 % 1010,0 hPa 0,0 l/m 12,1 km/h (2 Bft) S-SW 0,00 h 0 W/m 16,1 C 28,1 C 12,1 km/h (2 Bft)
01.08.2014 14:00 27,8 C 45 % 1009,5 hPa 0,0 l/m 16,3 km/h (3 Bft) SW 0,00 h 0 W/m 14,9 C 26,6 C 16,3 km/h (3 Bft)
01.08.2014 15:00 28,0 C 43 % 1009,5 hPa 0,0 l/m 16,5 km/h (3 Bft) S 0,00 h 0 W/m 14,4 C 26,9 C 16,5 km/h (3 Bft)
01.08.2014 16:00 28,0 C 43 % 1009,5 hPa 0,0 l/m 15,5 km/h (3 Bft) S 0,00 h 0 W/m 14,2 C 26,9 C 15,5 km/h (3 Bft)
01.08.2014 17:00 27,7 C 44 % 1008,8 hPa 0,0 l/m 16,5 km/h (3 Bft) SW 0,00 h 0 W/m 14,3 C 26,4 C 16,5 km/h (3 Bft)
01.08.2014 18:00 27,4 C 44 % 1008,5 hPa 0,0 l/m 15,9 km/h (3 Bft) S-SW 0,00 h 0 W/m 14,0 C 26,2 C 15,9 km/h (3 Bft)
01.08.2014 19:00 26,4 C 48 % 1008,5 hPa 0,0 l/m 13,3 km/h (3 Bft) S 0,00 h 0 W/m 14,3 C 25,3 C 13,3 km/h (3 Bft)
01.08.2014 20:00 25,1 C 53 % 1008,5 hPa 0,0 l/m 8,9 km/h (2 Bft) S 0,00 h 0 W/m 14,8 C 24,5 C 8,9 km/h (2 Bft)
01.08.2014 21:00 23,5 C 57 % 1008,5 hPa 0,0 l/m 5,2 km/h (1 Bft) S-SO 0,00 h 0 W/m 14,4 C 23,5 C 5,2 km/h (1 Bft)
01.08.2014 22:00 22,4 C 60 % 1009,0 hPa 0,0 l/m 4,4 km/h (1 Bft) S-SO 0,00 h 0 W/m 14,1 C 22,4 C 4,4 km/h (1 Bft)
01.08.2014 23:00 22,0 C 61 % 1009,5 hPa 0,0 l/m 10,0 km/h (2 Bft) S 0,00 h 0 W/m 14,0 C 20,8 C 10,0 km/h (2 Bft)
02.08.2014 00:00 21,7 C 61 % 1009,5 hPa 0,0 l/m 12,2 km/h (2 Bft) S 0,00 h 0 W/m 13,8 C 19,9 C 12,2 km/h (2 Bft)
02.08.2014 01:00 21,4 C 62 % 1009,0 hPa 0,0 l/m 14,1 km/h (3 Bft) S 0,00 h 0 W/m 13,7 C 19,2 C 14,1 km/h (3 Bft)
02.08.2014 02:00 20,9 C 63 % 1008,5 hPa 0,0 l/m 13,4 km/h (3 Bft) S 0,00 h 0 W/m 13,5 C 18,7 C 13,4 km/h (3 Bft)
02.08.2014 03:00 20,4 C 64 % 1008,5 hPa 0,0 l/m 14,6 km/h (3 Bft) S 0,00 h 0 W/m 13,4 C 17,8 C 14,6 km/h (3 Bft)
02.08.2014 04:00 19,8 C 66 % 1008,5 hPa 0,0 l/m 12,6 km/h (2 Bft) S 0,00 h 0 W/m 13,2 C 17,7 C 12,6 km/h (2 Bft)
02.08.2014 05:00 19,3 C 68 % 1008,5 hPa 0,0 l/m 10,5 km/h (2 Bft) S-SO 0,00 h 0 W/m 13,1 C 17,8 C 10,5 km/h (2 Bft)
02.08.2014 06:00 19,0 C 71 % 1008,5 hPa 0,0 l/m 7,3 km/h (2 Bft) S-SO 0,00 h 0 W/m 13,5 C 18,5 C 7,3 km/h (2 Bft)
02.08.2014 07:00 19,3 C 72 % 1008,5 hPa 0,0 l/m 8,0 km/h (2 Bft) SO 0,00 h 0 W/m 14,2 C 18,6 C 8,0 km/h (2 Bft)
02.08.2014 08:00 20,3 C 73 % 1008,5 hPa 0,0 l/m 13,3 km/h (3 Bft) S-SO 0,00 h 0 W/m 15,4 C 18,1 C 13,3 km/h (3 Bft)
02.08.2014 09:00 21,6 C 73 % 1008,3 hPa 0,0 l/m 13,1 km/h (3 Bft) SO 0,00 h 0 W/m 16,5 C 19,7 C 13,1 km/h (3 Bft)
02.08.2014 10:00 23,1 C 71 % 1007,5 hPa 0,0 l/m 12,5 km/h (2 Bft) SO 0,00 h 0 W/m 17,6 C 21,6 C 12,5 km/h (2 Bft)
02.08.2014 11:00 25,6 C 65 % 1007,5 hPa 0,0 l/m 14,9 km/h (3 Bft) S-SO 0,00 h 0 W/m 18,5 C 24,0 C 14,9 km/h (3 Bft)
02.08.2014 12:00 27,1 C 61 % 1007,3 hPa 0,0 l/m 14,1 km/h (3 Bft) SO 0,00 h 0 W/m 18,8 C 26,0 C 14,1 km/h (3 Bft)
02.08.2014 13:00 27,9 C 58 % 1006,5 hPa 0,0 l/m 17,4 km/h (3 Bft) SO 0,00 h 0 W/m 18,8 C 26,6 C 17,4 km/h (3 Bft)
02.08.2014 14:00 28,4 C 55 % 1006,3 hPa 0,0 l/m 14,8 km/h (3 Bft) O 0,00 h 0 W/m 18,3 C 27,5 C 14,8 km/h (3 Bft)
02.08.2014 15:00 28,8 C 52 % 1005,5 hPa 0,0 l/m 13,1 km/h (3 Bft) S 0,00 h 0 W/m 18,0 C 28,1 C 13,1 km/h (3 Bft)
02.08.2014 16:00 29,0 C 51 % 1004,7 hPa 0,0 l/m 15,8 km/h (3 Bft) S-SO 0,00 h 0 W/m 17,7 C 28,1 C 15,8 km/h (3 Bft)
02.08.2014 17:00 28,9 C 46 % 1004,5 hPa 0,0 l/m 22,5 km/h (4 Bft) S-SW 0,00 h 0 W/m 16,1 C 27,6 C 22,5 km/h (4 Bft)
02.08.2014 18:00 28,4 C 47 % 1004,5 hPa 0,0 l/m 16,9 km/h (3 Bft) S-SO 0,00 h 0 W/m 16,0 C 27,3 C 16,9 km/h (3 Bft)
02.08.2014 19:00 27,4 C 53 % 1004,5 hPa 0,0 l/m 14,6 km/h (3 Bft) S 0,00 h 0 W/m 16,8 C 26,3 C 14,6 km/h (3 Bft)
02.08.2014 20:00 26,2 C 61 % 1004,5 hPa 0,0 l/m 12,5 km/h (2 Bft) SO 0,00 h 0 W/m 18,0 C 25,2 C 12,5 km/h (2 Bft)
02.08.2014 21:00 25,0 C 64 % 1005,5 hPa 0,0 l/m 13,6 km/h (3 Bft) S-SO 0,00 h 0 W/m 17,8 C 23,6 C 13,6 km/h (3 Bft)
02.08.2014 22:00 24,5 C 67 % 1005,5 hPa 0,0 l/m 11,7 km/h (2 Bft) S-SO 0,00 h 0 W/m 18,0 C 23,3 C 11,7 km/h (2 Bft)
02.08.2014 23:00 24,0 C 69 % 1005,5 hPa 0,0 l/m 9,6 km/h (2 Bft) S-SO 0,00 h 0 W/m 17,8 C 23,1 C 9,6 km/h (2 Bft)
03.08.2014 00:00 23,3 C 70 % 1005,5 hPa 0,0 l/m 8,9 km/h (2 Bft) S-SO 0,00 h 0 W/m 17,6 C 22,6 C 8,9 km/h (2 Bft)
03.08.2014 01:00 22,7 C 72 % 1005,5 hPa 0,0 l/m 9,2 km/h (2 Bft) S 0,00 h 0 W/m 17,4 C 21,9 C 9,2 km/h (2 Bft)
03.08.2014 02:00 22,1 C 73 % 1005,5 hPa 0,0 l/m 3,6 km/h (1 Bft) S-SW 0,00 h 0 W/m 17,0 C 22,1 C 3,6 km/h (1 Bft)
03.08.2014 03:00 21,6 C 74 % 1005,5 hPa 0,0 l/m 8,3 km/h (2 Bft) W 0,00 h 0 W/m 16,7 C 20,9 C 8,3 km/h (2 Bft)
03.08.2014 04:00 21,1 C 75 % 1005,5 hPa 0,0 l/m 1,1 km/h (0 Bft) W-SW 0,00 h 0 W/m 16,4 C 21,1 C 1,1 km/h (0 Bft)
03.08.2014 05:00 20,6 C 76 % 1005,5 hPa 0,0 l/m 3,0 km/h (1 Bft) W-SW 0,00 h 0 W/m 16,3 C 20,6 C 3,0 km/h (1 Bft)
03.08.2014 06:00 20,5 C 79 % 1006,5 hPa 0,0 l/m 4,8 km/h (1 Bft) W-SW 0,00 h 0 W/m 16,7 C 20,5 C 4,8 km/h (1 Bft)
03.08.2014 07:00 20,9 C 81 % 1006,5 hPa 0,0 l/m 3,7 km/h (1 Bft) W-SW 0,00 h 0 W/m 17,5 C 20,9 C 3,7 km/h (1 Bft)
03.08.2014 08:00 21,6 C 81 % 1007,0 hPa 0,0 l/m 12,1 km/h (2 Bft) W 0,00 h 0 W/m 18,3 C 20,0 C 12,1 km/h (2 Bft)
03.08.2014 09:00 22,2 C 80 % 1007,5 hPa 0,0 l/m 15,9 km/h (3 Bft) W 0,00 h 0 W/m 18,5 C 19,7 C 15,9 km/h (3 Bft)
03.08.2014 10:00 23,3 C 76 % 1007,5 hPa 0,0 l/m 16,5 km/h (3 Bft) W 0,00 h 0 W/m 18,9 C 21,0 C 16,5 km/h (3 Bft)
03.08.2014 11:00 25,1 C 71 % 1008,3 hPa 0,0 l/m 14,9 km/h (3 Bft) NW 0,00 h 0 W/m 19,3 C 23,5 C 14,9 km/h (3 Bft)
03.08.2014 12:00 25,9 C 68 % 1008,5 hPa 0,0 l/m 18,3 km/h (3 Bft) NW 0,00 h 0 W/m 19,6 C 24,0 C 18,3 km/h (3 Bft)
03.08.2014 13:00 26,9 C 65 % 1009,0 hPa 0,0 l/m 17,1 km/h (3 Bft) W-NW 0,00 h 0 W/m 19,7 C 25,4 C 17,1 km/h (3 Bft)
03.08.2014 14:00 26,9 C 62 % 1009,5 hPa 0,0 l/m 16,6 km/h (3 Bft) NO 0,00 h 0 W/m 18,9 C 25,5 C 16,6 km/h (3 Bft)
03.08.2014 15:00 25,9 C 65 % 1009,5 hPa 0,0 l/m 20,6 km/h (4 Bft) N-NO 0,00 h 0 W/m 18,8 C 23,7 C 20,6 km/h (4 Bft)
03.08.2014 16:00 25,0 C 67 % 1009,5 hPa 0,0 l/m 18,9 km/h (3 Bft) N 0,00 h 0 W/m 18,4 C 22,8 C 18,9 km/h (3 Bft)
03.08.2014 17:00 24,2 C 65 % 1010,3 hPa 0,0 l/m 20,0 km/h (4 Bft) N-NO 0,00 h 0 W/m 17,1 C 21,6 C 20,0 km/h (4 Bft)
03.08.2014 18:00 22,7 C 69 % 1010,5 hPa 0,0 l/m 17,2 km/h (3 Bft) N-NO 0,00 h 0 W/m 16,8 C 20,3 C 17,2 km/h (3 Bft)
03.08.2014 19:00 22,1 C 70 % 1010,5 hPa 0,0 l/m 19,8 km/h (3 Bft) NO 0,00 h 0 W/m 16,2 C 18,9 C 19,8 km/h (3 Bft)
03.08.2014 20:00 21,5 C 70 % 1010,5 hPa 0,0 l/m 16,3 km/h (3 Bft) NO 0,00 h 0 W/m 15,7 C 18,8 C 16,3 km/h (3 Bft)
03.08.2014 21:00 20,9 C 66 % 1011,5 hPa 0,0 l/m 15,7 km/h (3 Bft) N-NO 0,00 h 0 W/m 14,3 C 18,2 C 15,7 km/h (3 Bft)
03.08.2014 22:00 20,7 C 65 % 1011,5 hPa 0,0 l/m 14,5 km/h (3 Bft) NO 0,00 h 0 W/m 13,8 C 18,2 C 14,5 km/h (3 Bft)
03.08.2014 23:00 20,4 C 66 % 1011,5 hPa 0,0 l/m 10,4 km/h (2 Bft) NO 0,00 h 0 W/m 13,7 C 19,0 C 10,4 km/h (2 Bft)
Min-Datum _ 01.08.14 01.08.14 02.08.14 - 29.07.14 - - - 02.08.14 31.07.14 29.07.14
_ Min-Zeit 06:30 15:15 16:14 - 01:30 - - - 05:30 08:30 01:30
Minimum _ 16,8 C 41 % 1004,5 hPa - 0,0 km/h (0 Bft) - - - 12,9 C 13,7 C 0,0 km/h (0 Bft)
Max-Datum _ 02.08.14 28.07.14 28.07.14 28.07.14 31.07.14 - 28.07.14 28.07.14 29.07.14 02.08.14 31.07.14
_ Max-Zeit 16:30 07:45 00:15 06:15 08:30 - 00:00 00:00 12:15 16:30 08:30
Maximum _ 29,6 C 88 % 1014,5 hPa 0,3 l/m 31,6 km/h
W (5 Bft)
- 0,00 h 0 W/m 21,5 C 28,7 C 31,6 km/h
W (5 Bft)
Durchschnitt _ 22,6 C 70 % 1010,0 hPa #0,9 l/m 13,7 km/h (3 Bft) NO #0 min. 0 W/m 16,7 C 20,9 C 13,7 km/h (3 Bft)
copyright by Holger Just